Elbert, Colorado
Current Conditions -  °F | °C
As of 3:52 PM on Thursday 23 Oct 2014 (Local Time) from KMNH Reporting Station
Clear Clear  
Wind Chill: 66°   Ceiling: Unl
Heat Index: 66°   Visibility: 10mi
Dew Point: 27°   Wind: 0mph
Humidity: 23%   Direction: NA
Pressure: 30.2"   Gusts: NA
Location:  39.22°N, 104.54°W
Report Text: KMNH 232152Z AUTO 00000KT 10SM CLR 19/M03 A3020 RMK AO2
Loading
Personal Weather Stations






























Interactive Weather Map
Tropical Storm Tracking
New forecast layout! Learn more

10-Day Weather Forecast

Advertisements
Track Severe Weather on mobile